createdAt,value
2023-04-16T00:00:40.134Z,79.72
2023-04-16T00:03:06.849Z,80.26
2023-04-16T00:05:33.505Z,81.12
2023-04-16T00:07:59.999Z,81.75
2023-04-16T00:10:26.495Z,80.32
2023-04-16T00:12:52.945Z,79.95
2023-04-16T00:15:19.420Z,80.00
2023-04-16T00:17:46.009Z,79.88
2023-04-16T00:20:12.587Z,79.99
2023-04-16T00:22:39.420Z,79.26
2023-04-16T00:25:06.342Z,79.79
2023-04-16T00:27:32.830Z,79.36
2023-04-16T00:29:59.305Z,78.22
2023-04-16T00:32:25.885Z,78.39
2023-04-16T00:34:52.344Z,78.54
2023-04-16T00:37:18.787Z,78.42
2023-04-16T00:39:45.389Z,78.35
2023-04-16T00:42:11.902Z,78.59
2023-04-16T00:44:38.396Z,79.16
2023-04-16T00:47:04.985Z,79.61
2023-04-16T00:49:31.900Z,79.92
2023-04-16T00:51:58.587Z,78.51
2023-04-16T00:54:25.293Z,78.67
2023-04-16T00:56:51.812Z,80.13
2023-04-16T00:59:18.555Z,78.51
2023-04-16T01:01:45.101Z,80.14
2023-04-16T01:04:11.933Z,79.09
2023-04-16T01:06:38.504Z,78.82
2023-04-16T01:09:05.641Z,78.70
2023-04-16T01:11:32.134Z,77.92
2023-04-16T01:13:58.584Z,78.20
2023-04-16T01:16:26.829Z,78.87
2023-04-16T01:18:53.372Z,78.52
2023-04-16T01:21:19.865Z,79.05
2023-04-16T01:23:46.371Z,78.13
2023-04-16T01:26:12.901Z,78.52
2023-04-16T01:28:39.403Z,79.54
2023-04-16T01:31:05.921Z,79.96
2023-04-16T01:33:32.415Z,80.27
2023-04-16T01:35:58.874Z,78.62
2023-04-16T01:38:25.346Z,78.24
2023-04-16T01:40:59.414Z,78.38
2023-04-16T01:43:26.108Z,78.48
2023-04-16T01:45:57.062Z,78.87
2023-04-16T01:48:23.499Z,79.43
2023-04-16T01:50:50.013Z,79.12
2023-04-16T01:53:16.464Z,79.71
2023-04-16T01:55:42.935Z,79.53
2023-04-16T01:58:11.048Z,78.59
2023-04-16T02:00:37.642Z,78.52
2023-04-16T02:03:04.410Z,79.23
2023-04-16T02:05:31.132Z,77.82
2023-04-16T02:07:57.677Z,77.57
2023-04-16T02:10:24.253Z,78.29
2023-04-16T02:12:51.025Z,78.00
2023-04-16T02:15:17.630Z,78.56
2023-04-16T02:17:44.093Z,78.78
2023-04-16T02:20:11.265Z,78.02
2023-04-16T02:22:37.737Z,78.07
2023-04-16T02:25:04.540Z,77.25
2023-04-16T02:27:31.018Z,77.19
2023-04-16T02:29:57.485Z,78.38
2023-04-16T02:32:24.101Z,78.04
2023-04-16T02:34:50.864Z,77.65
2023-04-16T02:37:17.368Z,77.04
2023-04-16T02:39:44.091Z,76.71
2023-04-16T02:42:10.689Z,76.62
2023-04-16T02:44:37.152Z,76.94
2023-04-16T02:47:03.658Z,77.23
2023-04-16T02:49:30.283Z,77.96
2023-04-16T02:51:56.745Z,77.12
2023-04-16T02:54:23.247Z,77.81
2023-04-16T02:56:49.732Z,76.76
2023-04-16T02:59:16.204Z,77.84
2023-04-16T03:01:42.709Z,77.73
2023-04-16T03:04:09.310Z,77.08
2023-04-16T03:06:36.071Z,76.28
2023-04-16T03:09:02.523Z,77.23
2023-04-16T03:11:28.974Z,76.64
2023-04-16T03:13:56.617Z,77.18
2023-04-16T03:16:23.295Z,77.40
2023-04-16T03:18:49.791Z,77.43
2023-04-16T03:21:16.260Z,78.32
2023-04-16T03:23:42.736Z,77.85
2023-04-16T03:26:09.205Z,77.97
2023-04-16T03:28:35.866Z,78.13
2023-04-16T03:31:02.397Z,77.20
2023-04-16T03:33:28.922Z,78.05
2023-04-16T03:35:58.908Z,78.26
2023-04-16T03:38:26.699Z,78.73
2023-04-16T03:40:53.250Z,77.70
2023-04-16T03:43:19.723Z,77.65
2023-04-16T03:45:47.026Z,78.58
2023-04-16T03:48:13.712Z,78.53
2023-04-16T03:50:40.233Z,77.56
2023-04-16T03:53:06.722Z,77.82
2023-04-16T03:55:33.171Z,77.42
2023-04-16T03:58:03.041Z,78.76
2023-04-16T04:00:30.506Z,77.74
2023-04-16T04:02:57.161Z,78.02
2023-04-16T04:05:23.843Z,77.82
2023-04-16T04:07:50.479Z,76.40
2023-04-16T04:10:17.010Z,75.80
2023-04-16T04:12:43.930Z,77.67
2023-04-16T04:15:11.651Z,78.42
2023-04-16T04:17:38.212Z,78.77
2023-04-16T04:20:05.205Z,78.87
2023-04-16T04:22:31.683Z,77.99
2023-04-16T04:24:58.159Z,77.67
2023-04-16T04:27:24.651Z,77.68
2023-04-16T04:29:51.551Z,76.86
2023-04-16T04:32:18.037Z,76.32
2023-04-16T04:34:44.586Z,77.99
2023-04-16T04:37:11.211Z,77.43
2023-04-16T04:39:37.672Z,77.20
2023-04-16T04:42:04.334Z,77.10
2023-04-16T04:44:30.859Z,76.69
2023-04-16T04:46:57.360Z,78.22
2023-04-16T04:49:23.854Z,77.28
2023-04-16T04:51:50.513Z,76.68
2023-04-16T04:54:16.963Z,77.09
2023-04-16T04:56:45.868Z,76.19
2023-04-16T04:59:12.715Z,77.18
2023-04-16T05:01:39.332Z,77.54
2023-04-16T05:04:06.378Z,76.66
2023-04-16T05:06:32.961Z,76.78
2023-04-16T05:08:59.422Z,76.68
2023-04-16T05:11:25.906Z,74.41
2023-04-16T05:13:52.428Z,72.88
2023-04-16T05:16:18.977Z,74.06
2023-04-16T05:18:45.554Z,76.15
2023-04-16T05:21:12.000Z,75.85
2023-04-16T05:23:38.448Z,75.91
2023-04-16T05:26:05.031Z,75.27
2023-04-16T05:28:31.474Z,75.39
2023-04-16T05:30:58.029Z,75.54
2023-04-16T05:33:24.587Z,73.87
2023-04-16T05:35:51.386Z,74.71
2023-04-16T05:38:17.853Z,76.60
2023-04-16T05:40:44.344Z,76.51
2023-04-16T05:43:11.020Z,75.49
2023-04-16T05:45:41.202Z,75.79
2023-04-16T05:48:09.261Z,75.35
2023-04-16T05:50:36.395Z,74.77
2023-04-16T05:53:05.827Z,75.59
2023-04-16T05:55:32.414Z,75.54
2023-04-16T05:57:58.889Z,75.18
2023-04-16T06:00:25.482Z,74.85
2023-04-16T06:02:52.046Z,74.10
2023-04-16T06:05:18.767Z,74.28
2023-04-16T06:07:45.346Z,74.41
2023-04-16T06:10:11.881Z,73.54
2023-04-16T06:12:38.418Z,73.61
2023-04-16T06:15:05.633Z,73.49
2023-04-16T06:17:32.225Z,73.12
2023-04-16T06:19:58.714Z,73.44
2023-04-16T06:22:25.250Z,72.96
2023-04-16T06:24:52.785Z,73.81
2023-04-16T06:27:19.285Z,72.95
2023-04-16T06:29:45.728Z,72.58
2023-04-16T06:32:12.316Z,73.34
2023-04-16T06:34:39.338Z,73.96
2023-04-16T06:37:07.155Z,74.46
2023-04-16T06:39:34.886Z,73.74
2023-04-16T06:42:01.475Z,74.08
2023-04-16T06:44:27.932Z,73.83
2023-04-16T06:46:54.408Z,73.86
2023-04-16T06:49:21.527Z,74.07
2023-04-16T06:51:48.018Z,73.87
2023-04-16T06:54:14.618Z,73.53
2023-04-16T06:56:41.090Z,73.96
2023-04-16T06:59:07.743Z,73.41
2023-04-16T07:01:34.417Z,72.46
2023-04-16T07:04:01.095Z,72.66
2023-04-16T07:06:27.854Z,71.76
2023-04-16T07:08:54.396Z,72.74
2023-04-16T07:11:21.143Z,73.37
2023-04-16T07:13:47.648Z,73.22
2023-04-16T07:16:14.169Z,73.24
2023-04-16T07:18:40.820Z,71.92
2023-04-16T07:21:07.296Z,72.75
2023-04-16T07:23:33.803Z,73.80
2023-04-16T07:26:00.800Z,73.26
2023-04-16T07:28:27.256Z,72.51
2023-04-16T07:30:53.838Z,73.21
2023-04-16T07:33:20.368Z,72.54
2023-04-16T07:35:47.388Z,72.32
2023-04-16T07:41:54.961Z,72.92
2023-04-16T07:44:21.537Z,72.98
2023-04-16T07:46:48.136Z,71.45
2023-04-16T07:49:14.981Z,72.14
2023-04-16T07:51:41.529Z,73.00
2023-04-16T07:54:08.050Z,72.83
2023-04-16T07:56:34.584Z,73.51
2023-04-16T07:59:11.104Z,73.55
2023-04-16T08:01:47.525Z,72.75
2023-04-16T08:04:14.366Z,71.72
2023-04-16T08:06:41.123Z,72.47
2023-04-16T08:09:14.664Z,71.71
2023-04-16T08:11:41.617Z,71.42
2023-04-16T08:14:08.390Z,73.09
2023-04-16T08:16:34.914Z,72.84
2023-04-16T08:19:01.678Z,72.81
2023-04-16T08:21:28.233Z,72.33
2023-04-16T08:23:54.689Z,71.03
2023-04-16T08:26:21.215Z,71.43
2023-04-16T08:28:47.693Z,71.92
2023-04-16T08:31:14.920Z,71.53
2023-04-16T08:33:41.422Z,72.60
2023-04-16T08:36:08.112Z,71.81
2023-04-16T08:38:34.615Z,72.56
2023-04-16T08:41:06.614Z,72.86
2023-04-16T08:43:34.568Z,74.14
2023-04-16T08:46:01.234Z,73.96
2023-04-16T08:48:33.667Z,72.90
2023-04-16T08:51:01.333Z,72.74
2023-04-16T08:53:33.508Z,74.25
2023-04-16T08:56:02.519Z,74.16
2023-04-16T08:58:30.687Z,75.50
2023-04-16T09:00:57.344Z,75.31
2023-04-16T09:03:24.013Z,75.68
2023-04-16T09:05:51.103Z,75.86
2023-04-16T09:08:18.268Z,75.52
2023-04-16T09:10:44.726Z,75.22
2023-04-16T09:13:13.451Z,74.73
2023-04-16T09:15:40.683Z,73.42
2023-04-16T09:18:07.785Z,73.68
2023-04-16T09:20:34.954Z,74.86
2023-04-16T09:23:01.506Z,74.48
2023-04-16T09:25:28.365Z,74.94
2023-04-16T09:27:54.838Z,75.92
2023-04-16T09:30:26.108Z,75.11
2023-04-16T09:32:53.726Z,74.14
2023-04-16T09:35:20.641Z,74.15
2023-04-16T09:38:05.370Z,74.64
2023-04-16T09:40:31.831Z,74.05
2023-04-16T09:43:00.768Z,75.10
2023-04-16T09:45:31.925Z,74.56
2023-04-16T09:48:04.332Z,72.63
2023-04-16T09:50:30.885Z,73.28
2023-04-16T09:53:02.625Z,73.37
2023-04-16T09:55:29.099Z,72.25
2023-04-16T09:58:00.463Z,71.97
2023-04-16T10:00:29.435Z,71.82
2023-04-16T10:03:07.219Z,71.82
2023-04-16T10:05:34.650Z,72.84
2023-04-16T10:08:03.955Z,71.77
2023-04-16T10:10:30.591Z,72.32
2023-04-16T10:12:57.986Z,73.91
2023-04-16T10:15:25.226Z,72.77
2023-04-16T10:17:51.863Z,72.04
2023-04-16T10:20:19.041Z,71.84
2023-04-16T10:22:46.655Z,72.88
2023-04-16T10:25:13.705Z,72.84
2023-04-16T10:27:41.342Z,73.03
2023-04-16T10:30:09.265Z,72.83
2023-04-16T10:32:36.844Z,73.24
2023-04-16T10:35:03.691Z,73.51
2023-04-16T10:37:31.342Z,73.57
2023-04-16T10:39:59.607Z,73.57
2023-04-16T10:42:27.532Z,74.78
2023-04-16T10:44:54.409Z,74.79
2023-04-16T10:47:25.053Z,76.84
2023-04-16T10:49:52.331Z,77.22
2023-04-16T10:52:19.240Z,78.21
2023-04-16T10:54:48.251Z,78.74
2023-04-16T10:57:20.330Z,80.85
2023-04-16T10:59:48.831Z,81.14
2023-04-16T11:02:18.061Z,80.28
2023-04-16T11:04:49.433Z,78.57
2023-04-16T11:07:22.076Z,79.09
2023-04-16T11:10:02.450Z,78.24
2023-04-16T11:12:29.279Z,79.77
2023-04-16T11:15:05.095Z,81.34
2023-04-16T11:17:37.835Z,81.74
2023-04-16T11:20:18.826Z,81.50
2023-04-16T11:22:47.815Z,82.54
2023-04-16T11:25:23.375Z,83.08
2023-04-16T11:27:51.123Z,82.95
2023-04-16T11:30:18.656Z,83.65
2023-04-16T11:32:46.862Z,83.22
2023-04-16T11:35:14.173Z,84.78
2023-04-16T11:37:41.430Z,85.25
2023-04-16T11:40:09.644Z,84.32
2023-04-16T11:42:37.309Z,83.72
2023-04-16T11:45:04.834Z,85.63
2023-04-16T11:47:31.859Z,85.52
2023-04-16T11:49:58.683Z,85.30
2023-04-16T11:52:32.773Z,84.76
2023-04-16T11:54:59.860Z,83.70
2023-04-16T11:57:28.365Z,84.19
2023-04-16T12:00:01.378Z,83.87
2023-04-16T12:02:45.257Z,83.53
2023-04-16T12:05:31.023Z,82.55
2023-04-16T12:08:30.649Z,81.30
2023-04-16T12:10:58.100Z,83.44
2023-04-16T12:13:24.581Z,81.75
2023-04-16T12:15:53.253Z,80.27
2023-04-16T12:18:22.878Z,81.13
2023-04-16T12:20:51.223Z,79.65
2023-04-16T12:23:25.588Z,81.33
2023-04-16T12:25:52.599Z,81.07
2023-04-16T12:28:31.017Z,79.42
2023-04-16T12:30:57.640Z,79.76
2023-04-16T12:33:24.223Z,79.80
2023-04-16T12:35:51.039Z,79.62
2023-04-16T12:38:17.621Z,78.52
2023-04-16T12:40:44.405Z,79.26
2023-04-16T12:43:11.153Z,79.53
2023-04-16T12:45:38.959Z,78.59
2023-04-16T12:48:05.649Z,76.95
2023-04-16T12:50:32.475Z,77.23
2023-04-16T12:52:59.128Z,77.35
2023-04-16T12:55:26.017Z,75.97
2023-04-16T12:57:55.622Z,76.08
2023-04-16T13:00:22.576Z,74.53
2023-04-16T13:02:49.262Z,75.08
2023-04-16T13:05:17.244Z,74.46
2023-04-16T13:07:43.808Z,75.87
2023-04-16T13:10:10.867Z,73.71
2023-04-16T13:12:37.455Z,73.41
2023-04-16T13:15:04.875Z,73.15
2023-04-16T13:17:31.367Z,74.33
2023-04-16T13:19:57.822Z,72.44
2023-04-16T13:22:24.309Z,72.82
2023-04-16T13:24:50.785Z,72.00
2023-04-16T13:27:18.113Z,73.10
2023-04-16T13:29:44.856Z,73.05
2023-04-16T13:32:13.741Z,73.06
2023-04-16T13:34:40.325Z,73.31
2023-04-16T13:37:07.014Z,73.37
2023-04-16T13:39:33.800Z,73.26
2023-04-16T13:42:00.608Z,72.72
2023-04-16T13:44:27.160Z,72.36
2023-04-16T13:46:53.735Z,73.12
2023-04-16T13:49:20.288Z,73.64
2023-04-16T13:51:46.787Z,73.09
2023-04-16T13:54:13.264Z,71.10
2023-04-16T13:56:40.095Z,72.26
2023-04-16T13:59:06.799Z,71.16
2023-04-16T14:01:33.278Z,70.93
2023-04-16T14:04:06.036Z,72.27
2023-04-16T14:06:33.838Z,71.80
2023-04-16T14:09:00.597Z,70.84
2023-04-16T14:11:27.089Z,72.21
2023-04-16T14:13:53.658Z,72.09
2023-04-16T14:16:20.340Z,70.96
2023-04-16T14:18:47.759Z,72.76
2023-04-16T14:21:14.704Z,73.06
2023-04-16T14:23:41.689Z,71.57
2023-04-16T14:26:08.649Z,71.92
2023-04-16T14:28:35.824Z,71.95
2023-04-16T14:31:02.825Z,71.46
2023-04-16T14:33:29.502Z,72.85
2023-04-16T14:35:56.126Z,71.86
2023-04-16T14:38:22.620Z,72.12
2023-04-16T14:40:49.094Z,72.41
2023-04-16T14:43:15.793Z,72.61
2023-04-16T14:45:42.355Z,71.08
2023-04-16T14:48:09.128Z,71.03
2023-04-16T14:50:39.128Z,70.17
2023-04-16T14:53:05.994Z,69.82
2023-04-16T14:55:32.904Z,69.80
2023-04-16T14:58:00.009Z,70.33
2023-04-16T15:00:27.707Z,70.74
2023-04-16T15:02:55.339Z,70.65
2023-04-16T15:05:22.479Z,72.00
2023-04-16T15:07:49.449Z,71.97
2023-04-16T15:10:16.576Z,72.52
2023-04-16T15:12:43.099Z,70.66
2023-04-16T15:15:10.551Z,69.85
2023-04-16T15:17:37.121Z,70.62
2023-04-16T15:20:08.150Z,70.38
2023-04-16T15:22:34.834Z,69.25
2023-04-16T15:25:01.335Z,69.82
2023-04-16T15:27:27.964Z,69.56
2023-04-16T15:29:54.529Z,69.09
2023-04-16T15:32:21.107Z,69.71
2023-04-16T15:34:47.572Z,70.11
2023-04-16T15:37:16.141Z,69.47
2023-04-16T15:39:42.980Z,69.34
2023-04-16T15:42:11.473Z,68.88
2023-04-16T15:44:37.967Z,67.98
2023-04-16T15:47:06.303Z,68.07
2023-04-16T15:49:33.109Z,69.29
2023-04-16T15:52:00.189Z,69.64
2023-04-16T15:54:27.210Z,70.74
2023-04-16T15:56:53.749Z,70.84
2023-04-16T15:59:20.259Z,70.42
2023-04-16T16:01:46.795Z,70.59
2023-04-16T16:04:13.608Z,69.57
2023-04-16T16:06:40.439Z,68.71
2023-04-16T16:09:06.884Z,69.55
2023-04-16T16:11:33.554Z,70.94
2023-04-16T16:14:02.854Z,71.10
2023-04-16T16:16:29.345Z,71.16
2023-04-16T16:18:55.978Z,71.10
2023-04-16T16:21:22.711Z,71.11
2023-04-16T16:23:49.278Z,71.42
2023-04-16T16:26:16.047Z,72.10
2023-04-16T16:28:44.628Z,72.28
2023-04-16T16:31:12.259Z,72.35
2023-04-16T16:33:40.485Z,73.18
2023-04-16T16:36:10.371Z,72.68
2023-04-16T16:38:36.909Z,73.27
2023-04-16T16:41:03.357Z,73.02
2023-04-16T16:43:29.858Z,72.25
2023-04-16T16:45:56.377Z,71.36
2023-04-16T16:48:22.894Z,72.87
2023-04-16T16:50:49.352Z,72.78
2023-04-16T16:53:15.845Z,73.48
2023-04-16T16:55:42.278Z,73.07
2023-04-16T16:58:09.705Z,72.32
2023-04-16T17:00:36.333Z,72.36
2023-04-16T17:03:03.281Z,73.12
2023-04-16T17:05:29.896Z,72.24
2023-04-16T17:07:56.373Z,72.86
2023-04-16T17:10:23.146Z,71.96
2023-04-16T17:12:50.490Z,71.96
2023-04-16T17:15:20.504Z,71.70
2023-04-16T17:17:48.254Z,72.20
2023-04-16T17:20:14.768Z,72.56
2023-04-16T17:22:41.826Z,72.13
2023-04-16T17:25:08.637Z,71.71
2023-04-16T17:27:35.207Z,73.72
2023-04-16T17:30:02.771Z,72.00
2023-04-16T17:32:29.811Z,72.95
2023-04-16T17:34:56.445Z,71.80
2023-04-16T17:37:23.490Z,72.76
2023-04-16T17:39:50.448Z,73.81
2023-04-16T17:42:17.235Z,73.17
2023-04-16T17:44:44.918Z,72.75
2023-04-16T17:47:11.811Z,73.74
2023-04-16T17:49:38.255Z,73.07
2023-04-16T17:52:04.859Z,73.76
2023-04-16T17:54:31.525Z,73.66
2023-04-16T17:56:58.634Z,73.09
2023-04-16T17:59:25.090Z,72.93
2023-04-16T18:01:51.635Z,72.99
2023-04-16T18:04:18.628Z,73.61
2023-04-16T18:06:45.647Z,73.11
2023-04-16T18:09:12.347Z,73.15
2023-04-16T18:11:38.853Z,74.82
2023-04-16T18:14:05.391Z,74.15
2023-04-16T18:16:32.251Z,73.22
2023-04-16T18:18:59.097Z,73.81
2023-04-16T18:21:25.969Z,73.75
2023-04-16T18:23:52.437Z,73.82
2023-04-16T18:26:21.096Z,73.56
2023-04-16T18:28:49.293Z,73.39
2023-04-16T18:31:15.967Z,74.48
2023-04-16T18:33:54.139Z,73.41
2023-04-16T18:36:23.631Z,74.69
2023-04-16T18:39:00.021Z,74.53
2023-04-16T18:41:27.237Z,73.19
2023-04-16T18:43:53.716Z,73.59
2023-04-16T18:46:20.321Z,73.66
2023-04-16T18:48:46.891Z,74.17
2023-04-16T18:51:15.462Z,75.32
2023-04-16T18:53:44.452Z,74.94
2023-04-16T18:56:11.634Z,74.68
2023-04-16T18:58:38.223Z,75.09
2023-04-16T19:01:07.675Z,75.12
2023-04-16T19:03:34.360Z,76.19
2023-04-16T19:06:01.111Z,76.03
2023-04-16T19:08:27.714Z,76.49
2023-04-16T19:10:54.255Z,75.47
2023-04-16T19:13:20.732Z,75.86
2023-04-16T19:15:47.398Z,75.36
2023-04-16T19:18:13.950Z,75.29
2023-04-16T19:20:40.446Z,75.17
2023-04-16T19:23:09.021Z,75.24
2023-04-16T19:25:36.527Z,74.78
2023-04-16T19:28:06.109Z,75.65
2023-04-16T19:30:32.653Z,76.09
2023-04-16T19:32:59.168Z,75.75
2023-04-16T19:35:25.814Z,75.20
2023-04-16T19:37:52.375Z,75.54
2023-04-16T19:40:19.137Z,76.38
2023-04-16T19:42:45.642Z,75.95
2023-04-16T19:45:12.312Z,76.60
2023-04-16T19:47:38.920Z,77.66
2023-04-16T19:50:06.073Z,76.82
2023-04-16T19:52:37.408Z,76.88
2023-04-16T19:55:04.859Z,76.47
2023-04-16T19:57:31.293Z,76.67
2023-04-16T19:59:57.823Z,76.23
2023-04-16T20:02:24.499Z,76.51
2023-04-16T20:04:52.938Z,76.93
2023-04-16T20:07:19.935Z,76.08
2023-04-16T20:09:46.584Z,75.50
2023-04-16T20:12:13.018Z,75.94
2023-04-16T20:14:39.496Z,76.37
2023-04-16T20:17:10.085Z,76.70
2023-04-16T20:19:38.424Z,76.89
2023-04-16T20:22:05.123Z,76.64
2023-04-16T20:24:31.680Z,77.43
2023-04-16T20:26:58.107Z,76.43
2023-04-16T20:29:24.565Z,76.92
2023-04-16T20:31:53.143Z,76.01
2023-04-16T20:34:19.626Z,76.68
2023-04-16T20:36:46.068Z,76.34
2023-04-16T20:39:12.840Z,76.11
2023-04-16T20:41:44.037Z,76.19
2023-04-16T20:44:18.105Z,75.91
2023-04-16T20:46:49.440Z,76.15
2023-04-16T20:49:17.717Z,76.16
2023-04-16T20:51:44.421Z,76.04
2023-04-16T20:54:11.452Z,76.12
2023-04-16T20:56:37.919Z,76.00
2023-04-16T20:59:04.599Z,76.01
2023-04-16T21:01:31.113Z,76.33
2023-04-16T21:03:57.717Z,76.56
2023-04-16T21:06:24.314Z,76.63
2023-04-16T21:08:50.863Z,76.85
2023-04-16T21:11:17.448Z,76.55
2023-04-16T21:13:43.986Z,76.21
2023-04-16T21:16:12.446Z,76.17
2023-04-16T21:18:39.162Z,76.00
2023-04-16T21:21:06.023Z,75.94
2023-04-16T21:23:32.585Z,76.28
2023-04-16T21:25:59.081Z,76.19
2023-04-16T21:28:25.790Z,75.99
2023-04-16T21:30:52.776Z,76.04
2023-04-16T21:33:19.296Z,76.19
2023-04-16T21:35:51.229Z,76.16
2023-04-16T21:38:17.886Z,76.21
2023-04-16T21:40:45.989Z,76.73
2023-04-16T21:43:12.451Z,76.63
2023-04-16T21:45:39.784Z,76.34
2023-04-16T21:48:06.625Z,76.23
2023-04-16T21:50:33.157Z,76.31
2023-04-16T21:52:59.636Z,76.83
2023-04-16T21:55:26.191Z,77.04
2023-04-16T21:57:52.670Z,76.78
2023-04-16T22:00:19.325Z,78.17
2023-04-16T22:02:45.910Z,77.87
2023-04-16T22:05:12.721Z,77.64
2023-04-16T22:07:39.239Z,77.36
2023-04-16T22:10:06.800Z,77.49
2023-04-16T22:12:33.271Z,77.39
2023-04-16T22:15:02.959Z,77.37
2023-04-16T22:17:30.151Z,76.95
2023-04-16T22:19:57.768Z,77.15
2023-04-16T22:22:24.326Z,77.20
2023-04-16T22:24:51.831Z,77.36
2023-04-16T22:27:18.668Z,77.09
2023-04-16T22:29:45.251Z,76.97
2023-04-16T22:32:12.235Z,78.19
2023-04-16T22:34:39.461Z,77.84
2023-04-16T22:37:08.291Z,78.28
2023-04-16T22:39:35.828Z,78.59
2023-04-16T22:42:02.889Z,79.97
2023-04-16T22:44:30.691Z,79.77
2023-04-16T22:46:57.765Z,79.46
2023-04-16T22:49:24.790Z,80.09
2023-04-16T22:51:51.727Z,79.50
2023-04-16T22:54:18.801Z,79.34
2023-04-16T22:56:48.600Z,79.20
2023-04-16T22:59:15.172Z,79.17
2023-04-16T23:01:42.751Z,79.18
2023-04-16T23:04:09.369Z,79.55
2023-04-16T23:06:35.853Z,79.98
2023-04-16T23:09:02.515Z,80.45
2023-04-16T23:11:29.023Z,80.23
2023-04-16T23:13:55.791Z,79.66
2023-04-16T23:16:22.405Z,79.08
2023-04-16T23:18:48.926Z,80.69
2023-04-16T23:21:15.471Z,79.41
2023-04-16T23:23:41.988Z,79.17
2023-04-16T23:26:08.495Z,80.34
2023-04-16T23:28:34.948Z,80.22
2023-04-16T23:31:01.521Z,79.68
2023-04-16T23:33:27.989Z,79.36
2023-04-16T23:35:56.818Z,79.65
2023-04-16T23:38:23.327Z,80.03
2023-04-16T23:40:49.969Z,79.83
2023-04-16T23:43:16.518Z,80.71
2023-04-16T23:45:43.021Z,79.56
2023-04-16T23:48:09.534Z,79.01
2023-04-16T23:50:36.009Z,80.08
2023-04-16T23:53:02.483Z,79.99
2023-04-16T23:55:29.002Z,79.18
2023-04-16T23:57:55.536Z,79.04
